Terminal Aerodrome Forecast
Issued by NWS King Salmon, AK

Home | Current Version | Previous Version | Text Only | Print | Product List | Glossary On
Versions: 1 2 3 4 5 6 7 8 9 10 11 12 13 14 15 16 17 18 19 20 21 22 23 24 25 26 27 28 29 30 31 32 33 34 35 36 37 38 39 40 41 42 43 44 45 46 47 48 49 50
000
FTAK31 PANC 230927 AAB
TAFAKN
TAF AMD
PAKN 230927Z 2309/2406 22008KT P6SM VCSH SCT025 BKN050
      TEMPO 2309/2312 -SHRA BKN015
     FM231200 20005KT 6SM -SHRA BR SCT004 OVC008
     FM231800 22007KT P6SM VCSH SCT008 OVC015
     FM232200 25010KT P6SM VCSH SCT015 BKN030=

USA.gov is the U.S. government's official web portal to all federal, state and local government web resources and services.